Thunder radar more information blitzortung!


Radar de pluja more information rain snow radar


Visita la nostra xarxa de llocs de meteo:

Template documentation
and downloads

And another site



No particular awareness of the weather is required.    There are no Weather-warnings

Pagina Historial Weather Underground text

Diari Resum May 23, 2017 Unitats:  Mètric    Imperial   Tant
« Previous Dia
SegĂźent Dia »
Diari Setmana Mensual Anual Personalitzada
  Maxima: Minima: Media:
Temperatura: -17.8 °C -9.9 °C -4.7 °C
Punt de rosada: -17.8 °C -12.4 °C -11.2 °C
Humitat: Humidity % 34 % 50 %
Wind Speed: 0 km/h 0 km/h 10 km/h
RĂ fegues de vent: 0 km/h - -
Vent:- - SSW
Pression baro: 0 hPa 34428.8 hPa -
Precipitacions: 0 mm    
Historical Graphs
 
 
Dades de taula per May 23, 2017
Temps Temperatura Punt de rosada Pression baro Vent Wind Speed RĂ fegues de vent Humitat Rainfall Rate (Hourly)
-17.8 °C -17.8 °C 0 hPa Calm     Humidity % 0 mm
00:00 -7.8 °C -11.9 °C 34496.6 hPa NE 3.1 km/h 3.1 km/h 62 % 0 mm
00:05 -7.9 °C -12 °C 34496.6 hPa Calm     62 % 0 mm
00:10 -8 °C -12.1 °C 34496.6 hPa SW 3.1 km/h 3.1 km/h 62 % 0 mm
00:15 -9.3 °C -11.3 °C 34533.8 hPa Calm     79 % 0 mm
00:25 -9.3 °C -11.3 °C 34533.8 hPa Calm     79 % 0 mm
00:35 -9.6 °C -11.7 °C 34533.8 hPa South 2.6 km/h 5.1 km/h 78 % 0 mm
00:45 -9.8 °C -11.9 °C 34533.8 hPa SW 5.1 km/h 7.7 km/h 78 % 0 mm
00:55 -9.9 °C -11.9 °C 34533.8 hPa SW 5.1 km/h 10.3 km/h 79 % 0 mm
01:05 -9.7 °C -11.7 °C 34533.8 hPa WSW 2.6 km/h 5.1 km/h 79 % 0 mm
01:15 -9.7 °C -11.6 °C 34533.8 hPa Calm   5.1 km/h 80 % 0 mm
01:25 -9.8 °C -11.7 °C 34567.7 hPa Calm   5.1 km/h 80 % 0 mm
01:35 -9.8 °C -11.7 °C 34567.7 hPa Calm   5.1 km/h 80 % 0 mm
01:45 -9.9 °C -11.9 °C 34567.7 hPa WSW 5.1 km/h 5.1 km/h 79 % 0 mm
01:55 -9.9 °C -11.9 °C 34567.7 hPa WSW 2.6 km/h 7.7 km/h 79 % 0 mm
02:05 -9.9 °C -11.8 °C 34567.7 hPa SW 2.6 km/h 5.1 km/h 80 % 0 mm
02:15 -9.8 °C -11.7 °C 34567.7 hPa SW 2.6 km/h 5.1 km/h 80 % 0 mm
02:25 -9.6 °C -11.6 °C 34601.5 hPa WSW 5.1 km/h 5.1 km/h 79 % 0 mm
02:35 -9.3 °C -11.3 °C 34601.5 hPa SW 5.1 km/h 5.1 km/h 79 % 0 mm
02:45 -9.1 °C -11.2 °C 34601.5 hPa SW 2.6 km/h 5.1 km/h 78 % 0 mm
02:55 -8.9 °C -11.2 °C 34567.7 hPa SW 5.1 km/h 5.1 km/h 77 % 0 mm
03:05 -8.7 °C -10.9 °C 34567.7 hPa SW 5.1 km/h 5.1 km/h 77 % 0 mm
03:15 -8.5 °C -10.9 °C 34601.5 hPa SW 2.6 km/h 5.1 km/h 76 % 0 mm
03:25 -8.3 °C -10.8 °C 34601.5 hPa SW 2.6 km/h 5.1 km/h 75 % 0 mm
03:35 -7.8 °C -10.4 °C 34601.5 hPa Calm   7.7 km/h 74 % 0 mm
03:45 -7.6 °C -10.3 °C 34601.5 hPa SSW 2.6 km/h 5.1 km/h 73 % 0 mm
03:55 -7.1 °C -10.1 °C 34601.5 hPa NE 2.6 km/h 7.7 km/h 71 % 0 mm
04:05 -7 °C -10.2 °C 34601.5 hPa East 2.6 km/h 5.1 km/h 69 % 0 mm
04:15 -6.8 °C -10.3 °C 34601.5 hPa ESE 5.1 km/h 10.3 km/h 67 % 0 mm
04:25 -6.6 °C -10.2 °C 34601.5 hPa East 2.6 km/h 7.7 km/h 66 % 0 mm
04:35 -6.1 °C -9.8 °C 34601.5 hPa East 2.6 km/h 5.1 km/h 65 % 0 mm
04:45 -6 °C -9.9 °C 34601.5 hPa Calm   7.7 km/h 64 % 0 mm
04:55 -5.6 °C -9.9 °C 34601.5 hPa SSW 5.1 km/h 7.7 km/h 61 % 0 mm
05:05 -5.3 °C -9.8 °C 34601.5 hPa SSW 5.1 km/h 7.7 km/h 60 % 0 mm
05:15 -5.1 °C -9.8 °C 34601.5 hPa SW 2.6 km/h 7.7 km/h 59 % 0 mm
05:25 -4.8 °C -9.6 °C 34601.5 hPa SSW 2.6 km/h 5.1 km/h 59 % 0 mm
05:35 -4.6 °C -9.6 °C 34601.5 hPa ENE 7.7 km/h 7.7 km/h 57 % 0 mm
05:45 -4.3 °C -9.5 °C 34567.7 hPa NE 5.1 km/h 5.1 km/h 56 % 0 mm
10:49 -4.1 °C -9.6 °C 34567.7 hPa SSW 8.5 km/h 8.5 km/h 54 % 0 mm
10:54 -3.8 °C -9.5 °C 34601.5 hPa SW 6 km/h 6 km/h 53 % 0 mm
10:59 -3.8 °C -9.7 °C 34601.5 hPa SE 6 km/h 6 km/h 52 % 0 mm
11:04 -3.4 °C -9.3 °C 34601.5 hPa SW 6 km/h 6 km/h 52 % 0 mm
11:09 -3.6 °C -9.8 °C 34567.7 hPa ESE 9 km/h 9 km/h 50 % 0 mm
11:14 -3.3 °C -9.4 °C 34567.7 hPa WSW 6 km/h 6 km/h 51 % 0 mm
11:19 -3.6 °C -9.7 °C 34567.7 hPa WSW 15 km/h 15 km/h 51 % 0 mm
11:24 -3.6 °C -9.7 °C 34601.5 hPa SW 15 km/h 15 km/h 51 % 0 mm
11:29 -3.4 °C -9.7 °C 34601.5 hPa WNW 11.9 km/h 11.9 km/h 50 % 0 mm
11:34 -3.1 °C -9.3 °C 34601.5 hPa WSW 9 km/h 9 km/h 50 % 0 mm
11:39 -3.2 °C -9.4 °C 34601.5 hPa SW 11.9 km/h 11.9 km/h 50 % 0 mm
11:44 -3.1 °C -9.5 °C 34601.5 hPa WSW 9 km/h 9 km/h 49 % 0 mm
11:49 -2.7 °C -9.3 °C 34601.5 hPa ESE 6 km/h 6 km/h 48 % 0 mm
11:54 -2.6 °C -9.4 °C 34601.5 hPa South 9 km/h 9 km/h 47 % 0 mm
11:59 -2.7 °C -9.5 °C 34601.5 hPa North 9 km/h 9 km/h 47 % 0 mm
12:04 -2.4 °C -9.5 °C 34601.5 hPa SW 6 km/h 6 km/h 46 % 0 mm
12:09 -2.6 °C -9.6 °C 34567.7 hPa SW 11.9 km/h 11.9 km/h 46 % 0 mm
12:14 -2.4 °C -9.4 °C 34567.7 hPa West 6 km/h 6 km/h 46 % 0 mm
12:19 -1.9 °C -9 °C 34567.7 hPa WNW 11.9 km/h 11.9 km/h 46 % 0 mm
12:24 -1.8 °C -9.1 °C 34533.8 hPa ESE 3.7 km/h 3.7 km/h 45 % 0 mm
12:29 -1.8 °C -9.1 °C 34533.8 hPa South 6 km/h 6 km/h 45 % 0 mm
12:34 -1.6 °C -9.3 °C 34533.8 hPa SSW 6 km/h 6 km/h 43 % 0 mm
12:35 -1.6 °C -9.3 °C 34533.8 hPa SSE 6 km/h 6 km/h 43 % 0 mm
12:40 -1.5 °C -9.2 °C 34533.8 hPa SW 6 km/h 6 km/h 43 % 0 mm
12:45 -1.5 °C -9.8 °C 34533.8 hPa SSW 17.9 km/h 17.9 km/h 40 % 0 mm
12:50 -1.7 °C -9.9 °C 34533.8 hPa East 9 km/h 9 km/h 40 % 0 mm
12:55 -1.9 °C -9.8 °C 34533.8 hPa South 6 km/h 6 km/h 42 % 0 mm
13:00 -1.5 °C -9.6 °C 34533.8 hPa West 11.9 km/h 11.9 km/h 41 % 0 mm
13:05 -1.2 °C -9.4 °C 34533.8 hPa West 9 km/h 9 km/h 41 % 0 mm
13:10 -1.5 °C -9.8 °C 34533.8 hPa WSW 11.9 km/h 11.9 km/h 40 % 0 mm
13:15 -1.7 °C -10.2 °C 34533.8 hPa WSW 9 km/h 9 km/h 39 % 0 mm
13:20 -1.8 °C -10.3 °C 34533.8 hPa ENE 6 km/h 6 km/h 39 % 0 mm
13:25 -2.2 °C -10.7 °C 34533.8 hPa East 11.9 km/h 11.9 km/h 39 % 0 mm
13:30 -2.1 °C -10.3 °C 34533.8 hPa ENE 11.9 km/h 11.9 km/h 40 % 0 mm
13:35 -1.7 °C -10.2 °C 34533.8 hPa SW 6 km/h 6 km/h 39 % 0 mm
13:37 -1.6 °C -10.2 °C 34533.8 hPa SW 15 km/h 15 km/h 39 % 0 mm
13:42 -1.2 °C -10.1 °C 34533.8 hPa SW 16.1 km/h 16.1 km/h 38 % 0 mm
13:47 -1.2 °C -10.2 °C 34533.8 hPa WSW 15 km/h 15 km/h 37 % 0 mm
13:52 -1.1 °C -10.2 °C 34533.8 hPa SW 9.3 km/h 9.3 km/h 37 % 0 mm
13:57 -1.2 °C -10.2 °C 34533.8 hPa WSW 11.9 km/h 11.9 km/h 37 % 0 mm
14:02 -1.4 °C -10.4 °C 34533.8 hPa NW 9 km/h 9 km/h 37 % 0 mm
14:07 -1.4 °C -10.7 °C 34533.8 hPa SE 11.9 km/h 11.9 km/h 36 % 0 mm
14:12 -1.1 °C -10.6 °C 34533.8 hPa ESE 9.8 km/h 9.8 km/h 35 % 0 mm
14:17 -1.7 °C -11.3 °C 34533.8 hPa ESE 16.1 km/h 16.1 km/h 34 % 0 mm
14:22 -1.9 °C -11.1 °C 34533.8 hPa South 17.9 km/h 17.9 km/h 36 % 0 mm
14:27 -1.3 °C -11 °C 34533.8 hPa SSW 11.9 km/h 11.9 km/h 34 % 0 mm
14:32 -1.1 °C -10.9 °C 34533.8 hPa NW 9 km/h 9 km/h 34 % 0 mm
14:37 -1.3 °C -10.6 °C 34533.8 hPa ESE 23.8 km/h 23.8 km/h 36 % 0 mm
14:42 -1.9 °C -11.1 °C 34533.8 hPa NE 15 km/h 15 km/h 36 % 0 mm
14:47 -1.9 °C -10.6 °C 34533.8 hPa ENE 29.8 km/h 29.8 km/h 38 % 0 mm
14:52 -2 °C -10.7 °C 34533.8 hPa East 27.7 km/h 27.7 km/h 38 % 0 mm
14:57 -1.8 °C -10.6 °C 34533.8 hPa SE 6 km/h 6 km/h 38 % 0 mm
15:02 -2.1 °C -10.8 °C 34533.8 hPa SE 11.9 km/h 11.9 km/h 38 % 0 mm
15:07 -1.9 °C -10.7 °C 34496.6 hPa SSW 15 km/h 15 km/h 38 % 0 mm
15:12 -1.8 °C -10.6 °C 34496.6 hPa NE 9 km/h 9 km/h 38 % 0 mm
15:17 -2 °C -10.7 °C 34496.6 hPa ESE 6 km/h 6 km/h 38 % 0 mm
15:22 -1.9 °C -10.6 °C 34496.6 hPa SW 9 km/h 9 km/h 38 % 0 mm
15:27 -1.3 °C -10.3 °C 34496.6 hPa SW 17.4 km/h 17.4 km/h 37 % 0 mm
15:32 -1.2 °C -10.2 °C 34496.6 hPa South 26.9 km/h 26.9 km/h 37 % 0 mm
15:37 -0.9 °C -10.5 °C 34496.6 hPa SSE 23.8 km/h 23.8 km/h 35 % 0 mm
15:42 -1.1 °C -10.6 °C 34496.6 hPa SSW 18.3 km/h 18.3 km/h 35 % 0 mm
15:47 -1 °C -10.5 °C 34496.6 hPa SSW 23.8 km/h 23.8 km/h 35 % 0 mm
15:52 -1.1 °C -10.6 °C 34496.6 hPa South 17.9 km/h 17.9 km/h 35 % 0 mm
15:57 -1.2 °C -10.5 °C 34496.6 hPa SSE 32.8 km/h 32.8 km/h 36 % 0 mm
16:02 -1.2 °C -10.7 °C 34496.6 hPa SW 26.9 km/h 26.9 km/h 35 % 0 mm
16:07 -1.3 °C -10.6 °C 34496.6 hPa WSW 23.8 km/h 23.8 km/h 36 % 0 mm
16:12 -1.6 °C -11 °C 34496.6 hPa South 23.8 km/h 23.8 km/h 35 % 0 mm
16:17 -1.5 °C -10.9 °C 34496.6 hPa SSW 26.9 km/h 26.9 km/h 35 % 0 mm
16:22 -1.7 °C -11.1 °C 34496.6 hPa South 23.8 km/h 23.8 km/h 35 % 0 mm
16:27 -1.7 °C -11.1 °C 34496.6 hPa WSW 22 km/h 22 km/h 35 % 0 mm
16:32 -1.7 °C -11.1 °C 34496.6 hPa SW 20.9 km/h 20.9 km/h 35 % 0 mm
16:37 -1.7 °C -11.1 °C 34496.6 hPa South 15 km/h 15 km/h 35 % 0 mm
16:42 -1.7 °C -11.1 °C 34496.6 hPa SW 11.9 km/h 11.9 km/h 35 % 0 mm
16:47 -1.6 °C -11 °C 34496.6 hPa SW 16.6 km/h 16.6 km/h 35 % 0 mm
16:52 -1.7 °C -11.1 °C 34496.6 hPa SW 20.3 km/h 20.3 km/h 35 % 0 mm
16:57 -1.8 °C -11 °C 34496.6 hPa WSW 23.8 km/h 23.8 km/h 36 % 0 mm
17:02 -1.8 °C -11.3 °C 34496.6 hPa West 15 km/h 15 km/h 35 % 0 mm
17:07 -1.9 °C -11.3 °C 34462.7 hPa SW 17.9 km/h 17.9 km/h 35 % 0 mm
17:12 -2 °C -11.4 °C 34462.7 hPa WSW 23.8 km/h 23.8 km/h 35 % 0 mm
17:17 -1.9 °C -11.1 °C 34462.7 hPa WNW 15 km/h 15 km/h 36 % 0 mm
17:18 -2 °C -11.2 °C 34462.7 hPa SW 15 km/h 15 km/h 36 % 0 mm
17:23 -2.2 °C -11.6 °C 34462.7 hPa WSW 23.8 km/h 23.8 km/h 35 % 0 mm
17:28 -2.4 °C -11.8 °C 34462.7 hPa SSW 20.9 km/h 20.9 km/h 35 % 0 mm
17:33 -2.4 °C -11.6 °C 34462.7 hPa WSW 20.9 km/h 20.9 km/h 36 % 0 mm
17:34 -2.4 °C -11.6 °C 34462.7 hPa SSW 20.9 km/h 20.9 km/h 36 % 0 mm
17:39 -2.5 °C -11.8 °C 34496.6 hPa SSW 26.9 km/h 26.9 km/h 35 % 0 mm
17:44 -2.5 °C -11.8 °C 34496.6 hPa WSW 20.9 km/h 20.9 km/h 35 % 0 mm
17:49 -2.6 °C -11.7 °C 34496.6 hPa SSW 26.9 km/h 26.9 km/h 36 % 0 mm
17:54 -2.5 °C -11.6 °C 34462.7 hPa SW 15 km/h 15 km/h 36 % 0 mm
17:59 -2.4 °C -11.6 °C 34462.7 hPa SSW 17.9 km/h 17.9 km/h 36 % 0 mm
18:04 -2.6 °C -11.7 °C 34462.7 hPa SW 23.8 km/h 23.8 km/h 36 % 0 mm
18:09 -2.7 °C -11.8 °C 34462.7 hPa SW 11.9 km/h 11.9 km/h 36 % 0 mm
18:14 -2.8 °C -12.1 °C 34462.7 hPa SSW 24.3 km/h 24.3 km/h 35 % 0 mm
18:19 -2.8 °C -11.9 °C 34462.7 hPa SW 19.6 km/h 19.6 km/h 36 % 0 mm
18:24 -2.8 °C -11.8 °C 34462.7 hPa SW 17.9 km/h 17.9 km/h 36 % 0 mm
18:29 -2.8 °C -11.7 °C 34462.7 hPa West 17.9 km/h 17.9 km/h 37 % 0 mm
18:34 -2.9 °C -12 °C 34462.7 hPa SW 23.8 km/h 23.8 km/h 36 % 0 mm
18:39 -3.1 °C -12.1 °C 34462.7 hPa SW 17.9 km/h 17.9 km/h 36 % 0 mm
18:44 -2.9 °C -12 °C 34462.7 hPa WSW 11.9 km/h 11.9 km/h 36 % 0 mm
18:49 -2.9 °C -11.7 °C 34462.7 hPa SW 9 km/h 9 km/h 37 % 0 mm
18:54 -2.9 °C -11.7 °C 34462.7 hPa South 9 km/h 9 km/h 37 % 0 mm
18:59 -3.1 °C -12.2 °C 34462.7 hPa WSW 17.9 km/h 17.9 km/h 36 % 0 mm
19:05 -3.1 °C -11.9 °C 34462.7 hPa SW 5.1 km/h 18.2 km/h 37 % 0 mm
19:10 -3.1 °C -11.8 °C 34462.7 hPa SW 7.7 km/h 12.9 km/h 37 % 0 mm
19:15 -3.2 °C -12.1 °C 34462.7 hPa SW 12.9 km/h 20.8 km/h 37 % 0 mm
19:20 -3.3 °C -11.9 °C 34462.7 hPa SW 5.1 km/h 18.2 km/h 38 % 0 mm
19:25 -3.6 °C -12.1 °C 34462.7 hPa SW 23.8 km/h 23.8 km/h 38 % 0 mm
19:30 -3.7 °C -12.3 °C 34462.7 hPa SW 15 km/h 15 km/h 38 % 0 mm
19:35 -3.8 °C -12.3 °C 34462.7 hPa WSW 17.9 km/h 17.9 km/h 38 % 0 mm
19:40 -3.8 °C -12.3 °C 34462.7 hPa SW 11.9 km/h 11.9 km/h 38 % 0 mm
19:45 -7.4 °C -11.6 °C 34533.8 hPa WSW 5.1 km/h 7.7 km/h 62 % 0 mm
19:46 -3.8 °C -12.3 °C 34462.7 hPa SW 9 km/h 9 km/h 38 % 0 mm
19:51 -3.9 °C -12.2 °C 34462.7 hPa SW 11.9 km/h 11.9 km/h 39 % 0 mm
19:55 -7.5 °C -11.5 °C 34533.8 hPa WSW 2.6 km/h 7.7 km/h 63 % 0 mm
19:56 -4.1 °C -12.1 °C 34462.7 hPa SW 15 km/h 15 km/h 40 % 0 mm
20:01 -4.2 °C -12.2 °C 34462.7 hPa SW 11.9 km/h 11.9 km/h 40 % 0 mm
20:05 -7.6 °C -11.4 °C 34533.8 hPa WSW 2.6 km/h 5.1 km/h 64 % 0 mm
20:06 -4.3 °C -12.3 °C 34462.7 hPa SSW 11.9 km/h 11.9 km/h 40 % 0 mm
20:11 -4.3 °C -12.2 °C 34462.7 hPa SSW 17.9 km/h 17.9 km/h 41 % 0 mm
20:15 -7.6 °C -11.6 °C 34533.8 hPa SW 5.1 km/h 5.1 km/h 63 % 0 mm
20:16 -4.5 °C -12.3 °C 34462.7 hPa SW 17.9 km/h 17.9 km/h 41 % 0 mm
20:21 -4.6 °C -12.3 °C 34462.7 hPa SW 15 km/h 15 km/h 41 % 0 mm
20:25 -7.7 °C -11.5 °C 34533.8 hPa Calm   5.1 km/h 64 % 0 mm
20:26 -4.7 °C -12.3 °C 34428.8 hPa SW 11.9 km/h 11.9 km/h 42 % 0 mm
20:31 -4.9 °C -12.4 °C 34428.8 hPa SW 11.9 km/h 11.9 km/h 42 % 0 mm
20:35 -7.7 °C -11.5 °C 34533.8 hPa West 2.6 km/h 2.6 km/h 64 % 0 mm
20:36 -5 °C -12.4 °C 34428.8 hPa SW 22.5 km/h 22.5 km/h 43 % 0 mm
20:41 -5.1 °C -12.2 °C 34462.7 hPa SSW 18.3 km/h 18.3 km/h 44 % 0 mm
20:45 -7.7 °C -11.4 °C 34533.8 hPa West 2.6 km/h 2.6 km/h 65 % 0 mm
20:46 -5.2 °C -12.1 °C 34462.7 hPa SW 15 km/h 15 km/h 45 % 0 mm
20:51 -5.3 °C -12.3 °C 34462.7 hPa West 15 km/h 15 km/h 45 % 0 mm
20:55 -7.7 °C -11.4 °C 34533.8 hPa Calm   2.6 km/h 65 % 0 mm
20:56 -5.4 °C -12.2 °C 34462.7 hPa West 15 km/h 15 km/h 46 % 0 mm
21:01 -5.4 °C -12.2 °C 34462.7 hPa South 9 km/h 9 km/h 46 % 0 mm
21:05 -7.8 °C -11.5 °C 34533.8 hPa WNW 2.6 km/h 2.6 km/h 65 % 0 mm
21:06 -5.6 °C -12.1 °C 34462.7 hPa SW 15 km/h 15 km/h 47 % 0 mm
21:11 -5.6 °C -12.2 °C 34496.6 hPa SW 15 km/h 15 km/h 47 % 0 mm
21:15 -7.9 °C -11.5 °C 34533.8 hPa Calm     66 % 0 mm
21:16 -5.7 °C -12.1 °C 34496.6 hPa SW 15 km/h 15 km/h 48 % 0 mm
21:21 -5.8 °C -12.2 °C 34496.6 hPa SW 9 km/h 9 km/h 48 % 0 mm
21:25 -8 °C -11.6 °C 34533.8 hPa Calm     66 % 0 mm
21:26 -5.8 °C -12.2 °C 34496.6 hPa WSW 9 km/h 9 km/h 48 % 0 mm
21:31 -5.9 °C -12.1 °C 34496.6 hPa WSW 9 km/h 9 km/h 49 % 0 mm
21:35 -7.9 °C -11.4 °C 34533.8 hPa Calm   2.6 km/h 67 % 0 mm
21:36 -6 °C -12.2 °C 34496.6 hPa SW 9 km/h 9 km/h 49 % 0 mm
21:41 -6.1 °C -12.3 °C 34496.6 hPa South 8.5 km/h 8.5 km/h 49 % 0 mm
21:45 -8.3 °C -11.8 °C 34533.8 hPa NNW 2.6 km/h 5.1 km/h 66 % 0 mm
21:46 -6.1 °C -12.1 °C 34496.6 hPa South 9 km/h 9 km/h 50 % 0 mm
21:51 -6.2 °C -12.1 °C 34496.6 hPa SSW 6.8 km/h 6.8 km/h 51 % 0 mm
21:55 -8.3 °C -11.9 °C 34533.8 hPa WSW 2.6 km/h 5.1 km/h 66 % 0 mm
21:56 -6.3 °C -12.1 °C 34496.6 hPa WSW 9 km/h 9 km/h 51 % 0 mm
22:01 -6.3 °C -12 °C 34496.6 hPa SSW 6.3 km/h 6.3 km/h 52 % 0 mm
22:05 -8.3 °C -11.8 °C 34533.8 hPa WSW 2.6 km/h 5.1 km/h 66 % 0 mm
22:06 -6.4 °C -12.1 °C 34496.6 hPa WSW 6 km/h 6 km/h 52 % 0 mm
22:07 -6.4 °C -12.1 °C 34496.6 hPa West 6.3 km/h 6.3 km/h 52 % 0 mm
22:12 -6.4 °C -12.1 °C 34496.6 hPa WSW 3.1 km/h   52 % 0 mm
22:15 -8.2 °C -11.8 °C 34533.8 hPa WSW 2.6 km/h 5.1 km/h 66 % 0 mm
22:17 -6.4 °C -11.9 °C 34496.6 hPa West 4.2 km/h 4.2 km/h 53 % 0 mm
22:22 -6.5 °C -12 °C 34496.6 hPa Calm     53 % 0 mm
22:25 -8.2 °C -11.8 °C 34533.8 hPa Calm   2.6 km/h 66 % 0 mm
22:27 -6.5 °C -12 °C 34496.6 hPa SSW 6 km/h 6 km/h 53 % 0 mm
22:32 -6.6 °C -12.1 °C 34496.6 hPa SW 7.6 km/h 7.6 km/h 53 % 0 mm
22:35 -8.1 °C -11.7 °C 34533.8 hPa SW 2.6 km/h 2.6 km/h 66 % 0 mm
22:37 -6.6 °C -12.1 °C 34496.6 hPa SW 9.8 km/h 9.8 km/h 53 % 0 mm
22:42 -6.6 °C -12.1 °C 34496.6 hPa SW 6.8 km/h 6.8 km/h 53 % 0 mm
22:45 -8.1 °C -11.7 °C 34533.8 hPa Calm   2.6 km/h 66 % 0 mm
22:47 -6.6 °C -12.1 °C 34496.6 hPa SW 9 km/h 9 km/h 53 % 0 mm
22:52 -6.7 °C -12 °C 34496.6 hPa WSW 5.1 km/h 5.1 km/h 54 % 0 mm
22:55 -8.1 °C -11.7 °C 34496.6 hPa Calm     66 % 0 mm
22:57 -6.7 °C -12 °C 34496.6 hPa West 3.1 km/h 3.1 km/h 54 % 0 mm
23:02 -6.7 °C -12.1 °C 34496.6 hPa WSW 6.3 km/h 6.3 km/h 54 % 0 mm
23:05 -8.2 °C -11.7 °C 34496.6 hPa Calm     66 % 0 mm
23:07 -6.7 °C -12.1 °C 34533.8 hPa SSW 6 km/h 6 km/h 54 % 0 mm
23:12 -6.8 °C -11.9 °C 34533.8 hPa WSW 6 km/h 6 km/h 55 % 0 mm
23:15 -8.3 °C -11.7 °C 34533.8 hPa Calm     67 % 0 mm
23:17 -6.8 °C -12 °C 34533.8 hPa SW 6 km/h 6.3 km/h 55 % 0 mm
23:22 -6.9 °C -12.1 °C 34533.8 hPa WSW 6.3 km/h 6.3 km/h 55 % 0 mm
23:25 -8.4 °C -11.7 °C 34533.8 hPa Calm   2.6 km/h 68 % 0 mm
23:27 -6.9 °C -11.9 °C 34533.8 hPa SW 6 km/h 6 km/h 56 % 0 mm
23:32 -6.9 °C -11.9 °C 34533.8 hPa SW 6 km/h 6 km/h 56 % 0 mm
23:35 -8.6 °C -11.9 °C 34533.8 hPa SW 2.6 km/h 5.1 km/h 68 % 0 mm
23:37 -7 °C -11.8 °C 34496.6 hPa WSW 3.1 km/h 3.1 km/h 57 % 0 mm
23:42 -7.1 °C -11.9 °C 34496.6 hPa WSW 6.3 km/h 7.6 km/h 57 % 0 mm
23:45 -8.6 °C -11.7 °C 34533.8 hPa Calm     69 % 0 mm
23:47 -7.1 °C -11.9 °C 34496.6 hPa West 7.6 km/h 7.6 km/h 57 % 0 mm
23:52 -7.1 °C -11.8 °C 34533.8 hPa SSW 6 km/h 6 km/h 58 % 0 mm
23:55 -8.6 °C -11.7 °C 34533.8 hPa Calm     69 % 0 mm
23:57 -7.1 °C -11.8 °C 34533.8 hPa SSW 6 km/h 6 km/h 58 % 0 mm
Meteo Sesrovires
Elogis d' Weather Underground - 1.5 mb

Guio original per  Jim McMurry - jmcmurry@mwt.net Adaptat per a la plantilla per  Wim van der Kuil - Leuven-Template.eu

Trobareu la nostra informacio del temps tambe a:

Weather Underground

AWEKAS